Time;durP1;ratioP1;P1;durP2;ratioP2;P2;SDS_P1;SDS_P2;PMS_P1;PMS_P2;Temp;Humidity;BMP_temperature;BMP_pressure;BME280_temperature;BME280_humidity;BME280_pressure;Samples;Min_cycle;Max_cycle;Signal;HPM_P1;HPM_P2
2021/04/19 00:00:07;;;;;;;17.73;15.83;;;5.80;99.90;;;;;;5051782;28;20203;-77
2021/04/19 00:02:33;;;;;;;18.37;15.27;;;5.80;99.90;;;;;;5052124;28;20233;-78
2021/04/19 00:05:01;;;;;;;18.63;15.53;;;5.80;99.90;;;;;;5045152;28;20191;-77
2021/04/19 00:07:27;;;;;;;17.60;14.90;;;5.80;99.90;;;;;;5053715;28;20211;-77
2021/04/19 00:09:53;;;;;;;15.23;13.60;;;5.80;99.90;;;;;;5052262;28;20238;-78
2021/04/19 00:12:20;;;;;;;17.03;15.33;;;5.80;99.90;;;;;;5053561;28;20296;-77
2021/04/19 00:14:47;;;;;;;17.70;15.80;;;5.70;99.90;;;;;;5050386;28;20566;-76
2021/04/19 00:17:13;;;;;;;18.50;16.60;;;5.70;99.90;;;;;;5049435;28;20269;-77
2021/04/19 00:19:39;;;;;;;18.20;16.37;;;5.70;99.90;;;;;;5050782;28;20656;-77
2021/04/19 00:22:06;;;;;;;17.10;15.37;;;5.60;99.90;;;;;;5050833;28;20188;-78
2021/04/19 00:24:33;;;;;;;16.33;14.37;;;5.60;99.90;;;;;;5053641;28;20196;-78
2021/04/19 00:26:59;;;;;;;18.47;16.60;;;5.60;99.90;;;;;;5051680;28;20230;-77
2021/04/19 00:29:25;;;;;;;17.33;15.73;;;5.50;99.90;;;;;;5054309;28;20195;-78
2021/04/19 00:31:52;;;;;;;17.80;16.00;;;5.50;99.90;;;;;;5058945;28;20215;-77
2021/04/19 00:34:18;;;;;;;16.93;14.60;;;5.50;99.90;;;;;;5055111;28;20199;-78
2021/04/19 00:36:44;;;;;;;17.90;16.10;;;5.50;99.90;;;;;;5058423;28;20242;-78
2021/04/19 00:39:12;;;;;;;16.80;14.93;;;5.40;99.90;;;;;;5049370;28;20207;-77
2021/04/19 00:41:38;;;;;;;18.63;16.20;;;5.50;99.90;;;;;;5056958;28;20689;-76
2021/04/19 00:44:05;;;;;;;17.03;15.43;;;5.40;99.90;;;;;;5056281;28;20199;-76
2021/04/19 00:46:32;;;;;;;17.40;15.60;;;5.50;99.90;;;;;;5057161;28;20227;-77
2021/04/19 00:48:58;;;;;;;18.23;16.43;;;5.50;99.90;;;;;;5053464;28;20218;-75
2021/04/19 00:51:25;;;;;;;17.53;15.50;;;5.60;99.90;;;;;;5052353;28;20440;-77
2021/04/19 00:53:52;;;;;;;18.33;16.03;;;5.70;99.90;;;;;;5054521;28;20271;-78
2021/04/19 00:56:19;;;;;;;17.53;15.80;;;5.70;99.90;;;;;;5055031;28;20219;-76
2021/04/19 00:58:46;;;;;;;20.20;16.80;;;5.70;99.90;;;;;;5054745;28;20203;-77
2021/04/19 01:01:14;;;;;;;16.97;15.37;;;5.80;99.90;;;;;;5051721;28;20203;-76
2021/04/19 01:03:41;;;;;;;18.17;16.20;;;5.80;99.90;;;;;;5055780;28;20698;-76
2021/04/19 01:06:08;;;;;;;16.87;15.17;;;5.80;99.90;;;;;;5053341;28;20663;-78
2021/04/19 01:08:35;;;;;;;16.67;14.97;;;5.80;99.90;;;;;;5047291;28;20249;-77
2021/04/19 01:11:02;;;;;;;16.77;15.17;;;5.80;99.90;;;;;;5046932;28;20201;-77
2021/04/19 01:13:29;;;;;;;17.70;15.90;;;5.80;99.90;;;;;;5055068;28;20218;-78
2021/04/19 01:15:56;;;;;;;19.67;17.57;;;5.80;99.90;;;;;;5054904;28;20219;-77
2021/04/19 01:18:23;;;;;;;19.13;17.10;;;5.80;99.90;;;;;;5050891;28;20200;-77
2021/04/19 01:20:51;;;;;;;17.90;16.07;;;5.80;99.90;;;;;;5052935;28;20223;-76
2021/04/19 01:23:20;;;;;;;17.10;15.27;;;5.80;99.90;;;;;;5054474;28;20266;-76
2021/04/19 01:25:49;;;;;;;18.23;16.50;;;5.70;99.90;;;;;;5052149;28;20223;-77
2021/04/19 01:28:20;;;;;;;17.43;15.70;;;5.60;99.90;;;;;;5052648;28;20207;-77
2021/04/19 01:30:48;;;;;;;17.07;15.30;;;5.60;99.90;;;;;;5055474;28;20207;-76
2021/04/19 01:33:15;;;;;;;20.63;16.70;;;5.50;99.90;;;;;;5054992;28;20222;-76
2021/04/19 01:35:42;;;;;;;18.10;16.23;;;5.50;99.90;;;;;;5054381;28;20772;-77
2021/04/19 01:38:13;;;;;;;17.57;15.70;;;5.40;99.90;;;;;;5054275;28;20726;-77
2021/04/19 01:40:40;;;;;;;18.30;16.50;;;5.40;99.90;;;;;;5053083;28;20195;-77
2021/04/19 01:43:09;;;;;;;18.70;16.73;;;5.30;99.90;;;;;;5051181;28;20196;-78
2021/04/19 01:45:46;;;;;;;17.30;15.60;;;5.20;99.90;;;;;;5051848;28;20242;-77
2021/04/19 01:48:12;;;;;;;18.10;16.30;;;5.20;99.90;;;;;;5045133;28;20236;-78
2021/04/19 01:50:40;;;;;;;17.53;15.73;;;5.10;99.90;;;;;;5046179;28;20267;-77
2021/04/19 01:53:07;;;;;;;18.67;16.83;;;5.00;99.90;;;;;;5053814;28;20244;-77
2021/04/19 01:55:37;;;;;;;18.97;16.77;;;4.90;99.90;;;;;;5053356;28;20249;-77
2021/04/19 01:58:08;;;;;;;18.13;16.33;;;4.90;99.90;;;;;;5046194;28;20257;-77
2021/04/19 02:00:38;;;;;;;20.57;18.47;;;4.80;99.90;;;;;;5053045;28;20203;-77
2021/04/19 02:03:14;;;;;;;17.93;16.30;;;4.80;99.90;;;;;;5042289;28;20667;-75
2021/04/19 02:05:50;;;;;;;17.60;15.90;;;4.70;99.90;;;;;;5034838;28;20219;-78
2021/04/19 02:08:27;;;;;;;17.90;16.20;;;4.70;99.90;;;;;;5037273;28;20554;-77
2021/04/19 02:11:02;;;;;;;17.40;15.70;;;4.60;99.90;;;;;;5055843;28;20341;-79
2021/04/19 02:13:39;;;;;;;18.13;16.33;;;4.60;99.90;;;;;;5054683;28;20195;-81
2021/04/19 02:16:17;;;;;;;17.10;15.50;;;4.50;99.90;;;;;;5056165;28;20393;-79
2021/04/19 02:18:49;;;;;;;16.47;14.97;;;4.50;99.90;;;;;;5058445;28;20195;-80
2021/04/19 02:21:20;;;;;;;18.37;16.47;;;4.40;99.90;;;;;;5057693;28;20203;-78
2021/04/19 02:23:50;;;;;;;18.13;16.20;;;4.40;99.90;;;;;;5052875;28;20194;-79
2021/04/19 02:26:28;;;;;;;18.87;17.07;;;4.30;99.90;;;;;;5042603;28;20560;-76
2021/04/19 02:28:59;;;;;;;19.70;17.60;;;4.30;99.90;;;;;;5057645;28;20207;-79
2021/04/19 02:31:29;;;;;;;18.27;16.37;;;4.20;99.90;;;;;;5047952;28;20215;-80
2021/04/19 02:33:59;;;;;;;18.97;17.03;;;4.20;99.90;;;;;;5050005;28;20552;-81
2021/04/19 02:36:29;;;;;;;18.23;16.53;;;4.10;99.90;;;;;;5075531;22;20493;-75
2021/04/19 02:38:57;;;;;;;17.73;16.13;;;4.10;99.90;;;;;;5054184;28;20202;-77
2021/04/19 02:41:28;;;;;;;19.93;17.93;;;4.10;99.90;;;;;;5061767;28;20445;-77
2021/04/19 02:43:56;;;;;;;19.83;17.83;;;4.00;99.90;;;;;;5055125;28;20561;-77
2021/04/19 02:46:37;;;;;;;19.63;16.80;;;4.00;99.90;;;;;;5055449;28;20465;-77
2021/04/19 02:49:04;;;;;;;18.80;17.00;;;4.00;99.90;;;;;;5058312;28;20290;-78
2021/04/19 02:51:32;;;;;;;19.13;17.00;;;3.90;99.90;;;;;;5054082;28;20492;-76
2021/04/19 02:53:59;;;;;;;20.03;17.97;;;3.80;99.90;;;;;;5059741;28;20430;-77
2021/04/19 02:56:28;;;;;;;18.23;16.43;;;3.80;99.90;;;;;;5055470;28;20471;-77
2021/04/19 02:58:58;;;;;;;17.87;16.13;;;3.70;99.90;;;;;;5057973;28;20486;-78
2021/04/19 03:01:35;;;;;;;19.47;17.50;;;3.70;99.90;;;;;;5052192;28;20453;-80
2021/04/19 03:04:07;;;;;;;19.30;16.97;;;3.70;99.90;;;;;;5049076;28;21059;-77
2021/04/19 03:06:38;;;;;;;19.67;17.53;;;3.70;99.90;;;;;;5053976;28;20469;-77
2021/04/19 03:09:08;;;;;;;20.53;18.20;;;3.70;99.90;;;;;;5046648;28;20441;-77
2021/04/19 03:11:42;;;;;;;20.10;17.67;;;3.70;99.90;;;;;;5047943;28;20241;-77
2021/04/19 03:14:13;;;;;;;22.10;18.57;;;3.70;99.90;;;;;;5051322;28;20979;-76
2021/04/19 03:16:53;;;;;;;22.03;18.33;;;3.70;99.90;;;;;;5060241;28;20473;-76
2021/04/19 03:19:25;;;;;;;20.47;18.40;;;3.70;99.90;;;;;;5060104;28;20484;-77
2021/04/19 03:21:54;;;;;;;20.00;17.80;;;3.60;99.90;;;;;;5054996;28;20460;-76
2021/04/19 03:24:23;;;;;;;24.60;19.53;;;3.60;99.90;;;;;;5055177;28;20455;-77
2021/04/19 03:27:06;;;;;;;21.63;19.37;;;3.60;99.90;;;;;;5049158;28;20469;-78
2021/04/19 03:29:39;;;;;;;27.60;21.30;;;3.70;99.90;;;;;;5064095;28;20470;-77
2021/04/19 03:32:15;;;;;;;27.30;20.37;;;3.70;99.90;;;;;;5062093;28;20555;-78
2021/04/19 03:34:46;;;;;;;22.40;19.43;;;3.60;99.90;;;;;;5064834;28;20439;-78
2021/04/19 03:37:19;;;;;;;23.60;19.50;;;3.60;99.90;;;;;;5059240;28;21015;-79
2021/04/19 03:39:52;;;;;;;21.37;18.80;;;3.60;99.90;;;;;;5063399;28;20453;-79
2021/04/19 03:42:21;;;;;;;23.00;19.77;;;3.60;99.90;;;;;;5060942;28;20447;-78
2021/04/19 03:44:50;;;;;;;20.30;18.10;;;3.60;99.90;;;;;;5059200;28;20460;-78
2021/04/19 03:47:33;;;;;;;21.53;18.90;;;3.60;99.90;;;;;;5059119;28;20480;-79
2021/04/19 03:50:12;;;;;;;23.37;18.33;;;3.60;99.90;;;;;;5048431;28;20980;-78
2021/04/19 03:52:49;;;;;;;24.53;20.53;;;3.60;99.90;;;;;;5062994;28;20469;-79
2021/04/19 03:55:18;;;;;;;24.43;19.97;;;3.60;99.90;;;;;;5063428;28;20456;-78
2021/04/19 03:57:49;;;;;;;21.07;17.60;;;3.50;99.90;;;;;;5062841;28;20453;-78
2021/04/19 04:00:25;;;;;;;26.70;22.20;;;3.60;99.90;;;;;;5059676;28;20437;-78
2021/04/19 04:03:10;;;;;;;25.23;19.63;;;3.60;99.90;;;;;;5066627;28;20437;-78
2021/04/19 04:05:58;;;;;;;23.37;19.03;;;3.60;99.90;;;;;;5067764;28;20472;-78
2021/04/19 04:08:32;;;;;;;22.10;19.07;;;3.60;99.90;;;;;;5058975;28;20463;-78
2021/04/19 04:11:00;;;;;;;24.13;19.07;;;3.60;99.90;;;;;;5062433;28;20964;-78
2021/04/19 04:13:29;;;;;;;23.63;19.13;;;3.70;99.90;;;;;;5059025;28;20465;-78
2021/04/19 04:15:59;;;;;;;20.93;18.73;;;3.70;99.90;;;;;;5062365;28;20442;-78
2021/04/19 04:18:30;;;;;;;22.13;18.43;;;3.70;99.90;;;;;;5062783;28;20545;-78
2021/04/19 04:20:57;;;;;;;19.07;17.13;;;3.60;99.90;;;;;;5063522;28;20445;-78
2021/04/19 04:23:28;;;;;;;24.40;19.93;;;3.60;99.90;;;;;;5064036;28;20449;-79
2021/04/19 04:25:56;;;;;;;22.80;19.33;;;3.60;99.90;;;;;;5055171;28;20528;-78
2021/04/19 04:28:27;;;;;;;24.30;19.47;;;3.60;99.90;;;;;;5062322;28;20456;-78
2021/04/19 04:31:07;;;;;;;20.00;18.00;;;3.60;99.90;;;;;;5051055;28;20446;-78
2021/04/19 04:33:37;;;;;;;21.07;18.87;;;3.60;99.90;;;;;;5061461;28;20483;-79
2021/04/19 04:36:09;;;;;;;20.27;18.23;;;3.70;99.90;;;;;;5061625;28;20473;-78
2021/04/19 04:38:40;;;;;;;20.00;18.00;;;3.70;99.90;;;;;;5061130;28;20455;-78
2021/04/19 04:41:11;;;;;;;19.97;17.40;;;3.80;99.90;;;;;;5057773;28;20453;-78
2021/04/19 04:43:40;;;;;;;21.00;17.23;;;3.80;99.90;;;;;;5057488;28;20434;-78
2021/04/19 04:46:13;;;;;;;18.83;16.93;;;3.90;99.90;;;;;;5060504;28;20465;-78
2021/04/19 04:48:46;;;;;;;18.87;16.90;;;3.90;99.90;;;;;;5061043;28;20452;-77
2021/04/19 04:51:17;;;;;;;19.40;16.80;;;4.00;99.90;;;;;;5060816;28;20453;-78
2021/04/19 04:53:49;;;;;;;21.83;19.63;;;4.00;99.90;;;;;;5057001;28;20290;-78
2021/04/19 04:56:19;;;;;;;21.23;19.10;;;4.10;99.90;;;;;;5061371;28;20229;-78
2021/04/19 04:58:51;;;;;;;20.57;18.13;;;4.10;99.90;;;;;;5052192;28;20187;-76
2021/04/19 05:01:19;;;;;;;21.00;18.77;;;4.20;99.90;;;;;;5051401;28;20456;-77
2021/04/19 05:03:46;;;;;;;20.17;18.17;;;4.30;99.90;;;;;;5053986;28;20430;-77
2021/04/19 05:06:13;;;;;;;24.03;19.77;;;4.40;99.90;;;;;;5059511;28;20269;-76
2021/04/19 05:08:40;;;;;;;19.80;17.90;;;4.40;99.90;;;;;;5059510;28;20200;-77
2021/04/19 05:11:07;;;;;;;19.53;17.40;;;4.50;99.90;;;;;;5058294;28;20203;-76
2021/04/19 05:13:33;;;;;;;20.73;18.33;;;4.60;99.90;;;;;;5055401;28;20226;-77
2021/04/19 05:16:02;;;;;;;19.93;17.97;;;4.60;99.90;;;;;;5052604;28;20449;-77
2021/04/19 05:18:28;;;;;;;20.07;17.87;;;4.70;99.90;;;;;;5060328;28;20929;-76
2021/04/19 05:20:56;;;;;;;19.10;17.33;;;4.70;99.90;;;;;;5056185;28;20201;-77
2021/04/19 05:23:23;;;;;;;18.53;16.67;;;4.80;99.90;;;;;;5056743;28;20261;-77
2021/04/19 05:25:50;;;;;;;18.57;16.70;;;4.90;99.90;;;;;;5052290;28;20442;-77
2021/04/19 05:28:18;;;;;;;18.63;16.47;;;4.90;99.90;;;;;;5060960;28;20202;-78
2021/04/19 05:30:45;;;;;;;18.37;16.57;;;5.00;99.90;;;;;;5054502;28;20612;-78
2021/04/19 05:33:12;;;;;;;19.37;17.40;;;5.00;99.90;;;;;;5055096;28;20540;-78
2021/04/19 05:35:39;;;;;;;20.30;17.83;;;5.10;99.90;;;;;;5054028;28;20191;-78
2021/04/19 05:38:06;;;;;;;18.80;16.77;;;5.20;99.90;;;;;;5055180;28;20255;-77
2021/04/19 05:40:35;;;;;;;18.80;16.97;;;5.20;99.90;;;;;;5055366;28;20461;-78
2021/04/19 05:43:03;;;;;;;17.57;15.77;;;5.30;99.90;;;;;;5051578;28;20270;-78
2021/04/19 05:45:30;;;;;;;17.80;16.00;;;5.30;99.90;;;;;;5062030;28;20199;-78
2021/04/19 05:47:58;;;;;;;17.53;15.80;;;5.40;99.90;;;;;;5062736;28;20211;-79
2021/04/19 05:50:26;;;;;;;17.17;15.47;;;5.40;99.90;;;;;;5059263;28;20827;-79
2021/04/19 05:52:57;;;;;;;15.87;14.23;;;5.50;99.90;;;;;;5062145;28;20214;-79
2021/04/19 05:55:26;;;;;;;17.77;15.97;;;5.50;99.90;;;;;;5056966;28;20683;-80
2021/04/19 05:57:57;;;;;;;18.60;16.60;;;5.60;99.90;;;;;;5056704;28;20258;-79
2021/04/19 06:00:28;;;;;;;18.33;16.63;;;5.70;99.90;;;;;;5058795;28;20199;-78
2021/04/19 06:03:01;;;;;;;17.10;15.43;;;5.70;99.90;;;;;;5059794;28;20657;-79
2021/04/19 06:05:33;;;;;;;17.73;16.10;;;5.70;99.90;;;;;;5058982;28;20286;-78
2021/04/19 06:08:14;;;;;;;19.50;17.57;;;5.70;99.90;;;;;;5054085;28;20216;-78
2021/04/19 06:11:12;;;;;;;18.77;16.87;;;5.70;99.90;;;;;;5051846;28;20674;-78
2021/04/19 06:14:00;;;;;;;18.87;16.97;;;5.70;99.90;;;;;;5059149;28;20658;-79
2021/04/19 06:16:29;;;;;;;19.30;16.87;;;5.80;99.90;;;;;;5059125;28;20226;-78
2021/04/19 06:18:56;;;;;;;18.53;16.57;;;5.80;99.90;;;;;;5057755;28;20698;-78
2021/04/19 06:21:24;;;;;;;18.27;16.47;;;5.80;99.90;;;;;;5064837;28;20203;-79
2021/04/19 06:23:51;;;;;;;18.47;16.60;;;5.80;99.90;;;;;;5075382;28;20198;-79
2021/04/19 06:26:19;;;;;;;19.90;17.80;;;5.90;99.90;;;;;;5052343;28;20253;-79
2021/04/19 06:28:49;;;;;;;18.37;16.57;;;5.90;99.90;;;;;;5059936;28;20269;-79
2021/04/19 06:31:18;;;;;;;18.97;17.07;;;5.90;99.90;;;;;;5059322;28;20225;-78
2021/04/19 06:34:02;;;;;;;17.33;15.60;;;6.00;99.90;;;;;;5055764;28;20249;-78
2021/04/19 06:36:31;;;;;;;19.77;17.67;;;6.10;99.90;;;;;;5066753;28;20231;-79
2021/04/19 06:38:57;;;;;;;20.17;16.80;;;6.10;99.90;;;;;;5059016;28;20198;-79
2021/04/19 06:41:24;;;;;;;19.77;17.77;;;6.10;99.90;;;;;;5059115;28;20202;-79
2021/04/19 06:43:50;;;;;;;19.83;17.83;;;6.20;99.90;;;;;;5061240;28;20195;-78
2021/04/19 06:46:16;;;;;;;21.30;18.13;;;6.20;99.90;;;;;;5052945;28;20239;-77
2021/04/19 06:48:43;;;;;;;21.67;17.87;;;6.20;99.90;;;;;;5057303;28;20795;-79
2021/04/19 06:51:11;;;;;;;19.50;17.40;;;6.30;99.90;;;;;;5052193;28;20192;-78
2021/04/19 06:53:38;;;;;;;22.37;18.53;;;6.40;99.90;;;;;;5051848;28;20215;-78
2021/04/19 06:56:06;;;;;;;20.50;18.20;;;6.40;99.90;;;;;;5055054;28;20223;-77
2021/04/19 06:58:34;;;;;;;20.17;18.00;;;6.50;99.90;;;;;;5059301;28;20811;-79
2021/04/19 07:01:01;;;;;;;19.47;17.47;;;6.50;99.90;;;;;;5049270;28;20204;-78
2021/04/19 07:03:29;;;;;;;23.07;19.00;;;6.50;99.90;;;;;;5055725;28;20200;-78
2021/04/19 07:05:57;;;;;;;21.00;18.73;;;6.50;99.90;;;;;;5062681;28;20204;-78
2021/04/19 07:08:29;;;;;;;21.70;19.40;;;6.50;99.90;;;;;;5061549;28;20196;-79
2021/04/19 07:11:02;;;;;;;19.93;18.03;;;6.40;99.90;;;;;;5060514;28;20228;-77
2021/04/19 07:13:30;;;;;;;18.87;17.00;;;6.40;99.90;;;;;;5069743;28;20214;-79
2021/04/19 07:15:57;;;;;;;17.80;16.10;;;6.30;99.90;;;;;;5062863;28;20184;-83
2021/04/19 07:18:24;;;;;;;18.07;16.23;;;6.40;99.90;;;;;;5058622;28;20206;-77
2021/04/19 07:20:51;;;;;;;18.60;16.80;;;6.40;99.90;;;;;;5054859;28;20200;-77
2021/04/19 07:23:17;;;;;;;19.13;17.23;;;6.40;99.90;;;;;;5065346;28;20218;-77
2021/04/19 07:25:45;;;;;;;19.10;17.30;;;6.30;99.90;;;;;;5056353;28;20204;-77
2021/04/19 07:28:14;;;;;;;19.23;17.10;;;6.30;99.90;;;;;;5060044;28;20200;-78
2021/04/19 07:30:41;;;;;;;18.30;16.60;;;6.30;99.90;;;;;;5063582;28;20187;-77
2021/04/19 07:33:24;;;;;;;18.50;16.70;;;6.30;99.90;;;;;;5068893;28;20251;-77
2021/04/19 07:35:50;;;;;;;17.73;16.13;;;6.40;99.90;;;;;;5058664;28;20199;-77
2021/04/19 07:38:30;;;;;;;19.40;17.47;;;6.50;99.90;;;;;;5062230;28;20671;-77
2021/04/19 07:40:56;;;;;;;21.20;19.03;;;6.50;99.90;;;;;;5063193;28;20186;-76
2021/04/19 07:43:24;;;;;;;21.33;18.37;;;6.60;99.90;;;;;;5060181;28;20199;-77
2021/04/19 07:46:01;;;;;;;21.13;18.90;;;6.60;99.90;;;;;;5066213;28;20341;-77
2021/04/19 07:48:33;;;;;;;20.53;18.43;;;6.60;99.90;;;;;;5063763;28;20663;-77
2021/04/19 07:51:00;;;;;;;21.73;19.53;;;6.60;99.90;;;;;;5063295;28;20215;-77
2021/04/19 07:53:26;;;;;;;20.63;18.43;;;6.70;99.90;;;;;;5061295;28;20203;-77
2021/04/19 07:55:53;;;;;;;18.87;17.03;;;6.70;99.90;;;;;;5054765;28;20188;-77
2021/04/19 07:58:22;;;;;;;18.83;16.87;;;6.90;99.90;;;;;;5057162;28;20672;-78
2021/04/19 08:00:50;;;;;;;18.73;16.80;;;7.00;99.90;;;;;;5057737;28;20275;-77
2021/04/19 08:03:18;;;;;;;20.23;18.13;;;6.90;99.90;;;;;;5054331;28;20197;-77
2021/04/19 08:05:48;;;;;;;18.90;16.97;;;7.00;99.90;;;;;;5054311;28;20215;-77
2021/04/19 08:08:16;;;;;;;21.10;18.50;;;7.00;99.90;;;;;;5053731;28;20672;-77
2021/04/19 08:10:43;;;;;;;18.80;17.00;;;7.00;99.90;;;;;;5055636;28;20197;-77
2021/04/19 08:13:11;;;;;;;19.63;17.67;;;7.10;99.90;;;;;;5051779;28;20266;-77
2021/04/19 08:15:40;;;;;;;21.83;19.53;;;7.00;99.90;;;;;;5057003;28;20222;-77
2021/04/19 08:18:10;;;;;;;19.73;17.83;;;7.10;99.90;;;;;;5059542;28;20207;-80
2021/04/19 08:20:37;;;;;;;20.20;17.90;;;7.10;99.90;;;;;;5055168;28;20200;-78
2021/04/19 08:23:12;;;;;;;20.33;18.23;;;7.10;99.90;;;;;;5053109;28;20686;-78
2021/04/19 08:25:45;;;;;;;21.80;18.97;;;7.20;99.90;;;;;;5056093;28;20256;-77
2021/04/19 08:28:15;;;;;;;21.00;18.90;;;7.20;99.90;;;;;;5055710;28;20279;-77
2021/04/19 08:30:44;;;;;;;22.03;19.77;;;7.20;99.90;;;;;;5062850;28;20199;-77
2021/04/19 08:33:12;;;;;;;21.10;19.13;;;7.30;99.90;;;;;;5061788;28;20217;-76
2021/04/19 08:35:40;;;;;;;22.23;20.03;;;7.30;99.90;;;;;;5062341;28;20634;-77
2021/04/19 08:38:08;;;;;;;22.03;18.97;;;7.30;99.90;;;;;;5061927;22;20240;-78
2021/04/19 08:40:38;;;;;;;22.27;20.07;;;7.40;99.90;;;;;;5049493;28;20201;-78
2021/04/19 08:43:08;;;;;;;21.93;19.67;;;7.40;99.90;;;;;;5034948;28;20588;-78
2021/04/19 08:45:38;;;;;;;20.87;18.60;;;7.50;99.90;;;;;;5039551;28;20327;-77
2021/04/19 08:48:09;;;;;;;20.50;17.97;;;7.60;99.90;;;;;;5043889;28;20217;-77
2021/04/19 08:50:36;;;;;;;22.97;19.37;;;7.70;99.90;;;;;;5039033;28;20204;-80
2021/04/19 08:53:03;;;;;;;21.67;19.40;;;7.70;99.90;;;;;;5040853;28;20245;-78
2021/04/19 08:55:29;;;;;;;22.03;19.83;;;7.80;99.90;;;;;;5025377;28;20201;-78
2021/04/19 08:58:00;;;;;;;20.27;18.27;;;7.80;99.90;;;;;;5050419;28;20225;-77
2021/04/19 09:00:29;;;;;;;22.27;19.93;;;7.90;99.90;;;;;;5047248;28;20241;-79
2021/04/19 09:02:58;;;;;;;20.83;18.83;;;7.80;99.90;;;;;;5048812;28;20737;-77
2021/04/19 09:05:25;;;;;;;23.07;20.77;;;7.90;99.90;;;;;;5050830;28;20201;-77
2021/04/19 09:08:04;;;;;;;23.23;20.73;;;7.90;99.90;;;;;;5049886;28;20224;-77
2021/04/19 09:10:49;;;;;;;17.93;14.73;;;7.80;99.90;;;;;;5033841;28;20201;-77
2021/04/19 09:13:29;;;;;;;22.37;12.63;;;7.90;99.90;;;;;;5039006;28;20217;-78
2021/04/19 09:16:13;;;;;;;22.30;17.93;;;8.00;99.90;;;;;;5039232;28;20206;-78
2021/04/19 09:18:40;;;;;;;15.73;12.40;;;8.00;99.90;;;;;;5034672;28;20636;-77
2021/04/19 09:21:08;;;;;;;21.83;15.23;;;8.10;99.90;;;;;;5046382;28;20221;-79
2021/04/19 09:23:36;;;;;;;20.97;18.83;;;8.10;99.90;;;;;;5047561;28;20225;-80
2021/04/19 09:26:02;;;;;;;21.13;19.13;;;8.10;99.90;;;;;;5048522;28;20195;-77
2021/04/19 09:28:56;;;;;;;20.73;18.53;;;8.10;99.90;;;;;;5040850;28;20612;-78
2021/04/19 09:32:01;;;;;;;22.93;20.60;;;8.20;99.90;;;;;;5052954;28;20185;-79
2021/04/19 09:34:38;;;;;;;22.40;19.87;;;8.20;99.90;;;;;;5054695;28;20296;-77
2021/04/19 09:37:06;;;;;;;21.67;19.47;;;8.20;99.90;;;;;;5050655;28;20242;-78
2021/04/19 09:40:06;;;;;;;21.73;19.53;;;8.30;99.90;;;;;;5041404;28;20197;-78
2021/04/19 09:43:05;;;;;;;21.60;19.50;;;8.40;99.90;;;;;;4968114;28;20632;-79
2021/04/19 09:46:02;;;;;;;21.73;19.37;;;8.40;99.90;;;;;;5037917;28;20194;-79
2021/04/19 09:48:40;;;;;;;22.13;19.93;;;8.60;99.90;;;;;;4977994;28;20222;-78
2021/04/19 09:51:13;;;;;;;21.77;19.47;;;8.80;99.90;;;;;;5023464;28;20203;-78
2021/04/19 09:53:40;;;;;;;21.07;18.87;;;8.90;99.90;;;;;;5042675;28;20225;-77
2021/04/19 09:56:08;;;;;;;22.03;19.90;;;9.00;99.90;;;;;;5042142;28;20196;-78
2021/04/19 09:58:38;;;;;;;23.20;20.77;;;9.10;99.90;;;;;;5040413;28;20261;-77
2021/04/19 10:01:04;;;;;;;22.60;20.23;;;9.30;99.90;;;;;;5026945;28;20199;-78
2021/04/19 10:03:32;;;;;;;22.53;19.90;;;9.40;99.90;;;;;;5028802;28;20200;-79
2021/04/19 10:06:02;;;;;;;21.63;19.33;;;9.50;99.90;;;;;;5041821;28;20307;-79
2021/04/19 10:08:30;;;;;;;21.57;19.50;;;9.70;99.90;;;;;;5032745;28;20266;-78
2021/04/19 10:10:58;;;;;;;22.40;19.87;;;9.70;99.90;;;;;;5040918;28;20578;-78
2021/04/19 10:13:30;;;;;;;20.73;18.57;;;9.80;99.90;;;;;;5031208;28;20777;-79
2021/04/19 10:16:05;;;;;;;20.97;18.87;;;9.80;99.90;;;;;;5036040;28;20206;-78
2021/04/19 10:18:33;;;;;;;20.60;18.50;;;9.80;99.90;;;;;;5035770;28;20215;-77
2021/04/19 10:20:59;;;;;;;22.20;20.00;;;9.90;99.90;;;;;;5037320;28;20206;-78
2021/04/19 10:23:38;;;;;;;21.30;19.07;;;9.90;99.90;;;;;;5048387;28;20238;-78
2021/04/19 10:26:05;;;;;;;20.70;18.80;;;9.90;99.90;;;;;;5047046;28;20664;-78
2021/04/19 10:28:35;;;;;;;22.00;19.70;;;9.90;99.90;;;;;;5065002;28;20218;-77
2021/04/19 10:31:12;;;;;;;22.70;20.30;;;9.90;99.90;;;;;;5045257;28;20200;-79
2021/04/19 10:33:38;;;;;;;22.33;20.27;;;9.90;99.90;;;;;;5043017;28;20219;-79
2021/04/19 10:36:13;;;;;;;21.77;19.67;;;9.90;99.90;;;;;;5047204;28;20191;-79
2021/04/19 10:38:40;;;;;;;22.13;19.93;;;9.90;99.90;;;;;;5052881;28;20227;-79
2021/04/19 10:41:07;;;;;;;22.33;20.03;;;9.80;99.90;;;;;;5048151;28;20199;-79
2021/04/19 10:43:35;;;;;;;21.77;19.47;;;9.80;99.90;;;;;;5051148;28;20253;-79
2021/04/19 10:46:01;;;;;;;22.17;19.97;;;9.80;99.90;;;;;;5047353;28;20200;-78
2021/04/19 10:48:32;;;;;;;22.60;20.20;;;9.70;99.90;;;;;;5047119;28;20223;-79
2021/04/19 10:51:15;;;;;;;22.87;20.57;;;9.70;99.90;;;;;;5038781;28;20196;-79
2021/04/19 10:53:42;;;;;;;23.20;21.00;;;9.70;99.90;;;;;;5046000;28;20273;-78
2021/04/19 10:56:09;;;;;;;23.07;20.57;;;9.70;99.90;;;;;;5038821;28;20195;-78
2021/04/19 10:58:38;;;;;;;24.27;21.70;;;9.60;99.90;;;;;;5043109;28;20223;-78
2021/04/19 11:01:05;;;;;;;23.80;21.37;;;9.60;99.90;;;;;;5036158;28;20652;-77
2021/04/19 11:03:35;;;;;;;25.00;22.30;;;9.70;99.90;;;;;;5041312;28;20184;-79
2021/04/19 11:06:02;;;;;;;23.23;20.77;;;9.60;99.90;;;;;;5048252;28;20227;-77
2021/04/19 11:08:52;;;;;;;22.00;19.67;;;9.60;99.90;;;;;;5037171;28;20223;-78
2021/04/19 11:11:39;;;;;;;23.30;20.93;;;9.70;99.90;;;;;;5031989;28;20196;-78
2021/04/19 11:14:12;;;;;;;22.20;19.97;;;9.80;99.90;;;;;;5034233;28;20231;-78
2021/04/19 11:16:55;;;;;;;23.27;20.87;;;9.90;99.90;;;;;;5041818;28;20755;-79
2021/04/19 11:19:36;;;;;;;23.50;21.00;;;9.90;99.90;;;;;;5064393;28;20207;-77
2021/04/19 11:22:19;;;;;;;24.17;21.67;;;10.00;99.90;;;;;;5052750;28;20216;-78
2021/04/19 11:24:45;;;;;;;25.37;22.67;;;9.90;99.90;;;;;;5045847;28;20203;-79
2021/04/19 11:27:12;;;;;;;22.70;20.23;;;9.90;99.90;;;;;;5062199;28;20226;-78
2021/04/19 11:29:41;;;;;;;22.77;20.57;;;10.10;99.90;;;;;;5050474;28;20203;-78
2021/04/19 11:32:09;;;;;;;26.00;21.80;;;10.10;99.90;;;;;;5050246;28;20211;-78
2021/04/19 11:34:37;;;;;;;22.73;20.53;;;10.10;99.90;;;;;;5049931;28;20249;-77
2021/04/19 11:37:04;;;;;;;22.67;20.37;;;10.20;99.90;;;;;;5047916;28;20704;-78
2021/04/19 11:39:38;;;;;;;25.27;22.60;;;10.30;99.90;;;;;;5047856;28;20203;-77
2021/04/19 11:42:26;;;;;;;24.27;21.67;;;10.20;99.90;;;;;;5043558;28;20229;-77
2021/04/19 11:44:54;;;;;;;24.13;21.73;;;10.30;99.90;;;;;;5046575;28;20203;-77
2021/04/19 11:47:20;;;;;;;23.93;21.40;;;10.30;99.90;;;;;;5059428;28;20238;-78
2021/04/19 11:49:50;;;;;;;24.10;21.70;;;10.40;99.90;;;;;;5048214;28;20216;-78
2021/04/19 11:52:17;;;;;;;22.70;20.40;;;10.50;99.90;;;;;;5052302;28;20199;-79
2021/04/19 11:54:43;;;;;;;23.47;21.10;;;10.50;99.90;;;;;;5055404;28;20317;-79
2021/04/19 11:57:10;;;;;;;22.53;20.33;;;10.50;99.90;;;;;;5051398;28;20220;-78
2021/04/19 11:59:36;;;;;;;26.20;21.57;;;10.50;99.90;;;;;;5051124;28;20191;-78
2021/04/19 12:02:04;;;;;;;23.83;21.17;;;10.50;99.90;;;;;;5052601;28;20203;-77
2021/04/19 12:04:31;;;;;;;24.07;21.57;;;10.60;99.90;;;;;;5053437;28;20675;-77
2021/04/19 12:06:57;;;;;;;23.77;21.33;;;10.60;99.90;;;;;;5051763;28;20218;-78
2021/04/19 12:09:24;;;;;;;23.83;21.43;;;10.60;99.90;;;;;;5053797;28;20264;-79
2021/04/19 12:11:51;;;;;;;21.60;19.50;;;10.60;99.90;;;;;;5043402;28;20253;-77
2021/04/19 12:14:17;;;;;;;24.20;21.60;;;10.70;99.90;;;;;;5036659;28;20243;-77
2021/04/19 12:16:43;;;;;;;22.53;20.43;;;10.70;99.90;;;;;;5042236;28;20226;-79
2021/04/19 12:19:11;;;;;;;23.50;20.97;;;10.80;99.90;;;;;;5033997;28;20254;-77
2021/04/19 12:21:37;;;;;;;24.43;21.90;;;10.80;99.90;;;;;;5042546;28;20206;-77
2021/04/19 12:24:05;;;;;;;23.07;20.83;;;10.90;99.90;;;;;;5031832;28;20270;-77
2021/04/19 12:26:31;;;;;;;25.73;21.73;;;10.80;99.90;;;;;;5038793;28;20200;-78
2021/04/19 12:28:57;;;;;;;24.67;22.17;;;10.80;99.90;;;;;;5047403;28;20192;-77
2021/04/19 12:31:24;;;;;;;22.20;19.90;;;10.80;99.90;;;;;;5046528;28;20202;-79
2021/04/19 12:33:50;;;;;;;24.27;21.03;;;10.80;99.90;;;;;;5044722;28;20223;-80
2021/04/19 12:36:18;;;;;;;22.93;20.60;;;10.70;99.90;;;;;;5035474;28;20288;-79
2021/04/19 12:38:45;;;;;;;22.67;20.40;;;10.70;99.90;;;;;;5043721;28;20215;-79
2021/04/19 12:41:11;;;;;;;24.20;21.73;;;10.70;99.90;;;;;;5037939;28;20204;-78
2021/04/19 12:43:37;;;;;;;22.17;19.90;;;10.70;99.90;;;;;;5041864;28;20195;-79
2021/04/19 12:46:04;;;;;;;23.00;20.73;;;10.80;99.90;;;;;;5044827;28;20203;-79
2021/04/19 12:48:39;;;;;;;22.93;20.63;;;10.80;99.90;;;;;;5038508;28;20215;-86
2021/04/19 12:51:05;;;;;;;22.57;19.57;;;10.80;99.90;;;;;;5046995;28;20199;-80